Time;durP1;ratioP1;P1;durP2;ratioP2;P2;SDS_P1;SDS_P2;PMS_P1;PMS_P2;Temp;Humidity;BMP_temperature;BMP_pressure;BME280_temperature;BME280_humidity;BME280_pressure;Samples;Min_cycle;Max_cycle;Signal;HPM_P1;HPM_P2
2021/01/01 00:00:49;;;;;;;141.18;62.03;;;5.30;99.90;;;;;;5041632;28;20025;-76
2021/01/01 00:03:15;;;;;;;127.63;57.85;;;5.30;99.90;;;;;;5050333;28;20025;-75
2021/01/01 00:05:43;;;;;;;119.68;57.00;;;5.30;99.90;;;;;;5043158;28;20029;-74
2021/01/01 00:08:09;;;;;;;129.52;58.75;;;5.30;99.90;;;;;;5041229;28;20023;-76
2021/01/01 00:10:34;;;;;;;133.98;61.53;;;5.20;99.90;;;;;;5042897;28;20462;-76
2021/01/01 00:13:00;;;;;;;123.22;59.03;;;5.10;99.90;;;;;;5049283;28;20354;-76
2021/01/01 00:15:26;;;;;;;129.18;56.97;;;5.10;99.90;;;;;;5041762;28;20502;-75
2021/01/01 00:17:51;;;;;;;147.98;59.03;;;5.10;99.90;;;;;;5048547;28;20500;-76
2021/01/01 00:20:17;;;;;;;131.18;57.63;;;5.10;99.90;;;;;;5045772;28;20021;-75
2021/01/01 00:22:43;;;;;;;136.88;63.10;;;5.10;99.90;;;;;;5046979;28;20021;-76
2021/01/01 00:25:11;;;;;;;157.27;63.33;;;5.20;99.90;;;;;;5025079;28;20052;-75
2021/01/01 00:27:37;;;;;;;134.30;62.05;;;5.20;99.90;;;;;;5045378;28;20481;-74
2021/01/01 00:30:06;;;;;;;140.98;59.83;;;5.10;99.90;;;;;;5047126;28;20028;-75
2021/01/01 00:32:32;;;;;;;142.80;63.20;;;5.10;99.90;;;;;;5048264;28;20080;-74
2021/01/01 00:34:58;;;;;;;130.93;59.38;;;5.10;99.90;;;;;;5049889;28;20428;-76
2021/01/01 00:37:24;;;;;;;141.32;64.63;;;5.10;99.90;;;;;;5047071;28;20469;-76
2021/01/01 00:39:49;;;;;;;140.88;65.60;;;5.10;99.90;;;;;;5044496;28;20038;-76
2021/01/01 00:42:15;;;;;;;134.82;63.38;;;5.10;99.90;;;;;;5046345;28;20044;-75
2021/01/01 00:44:41;;;;;;;138.15;67.38;;;5.20;99.90;;;;;;5051653;28;20024;-76
2021/01/01 00:47:11;;;;;;;131.43;63.08;;;5.20;99.90;;;;;;5043915;28;20477;-74
2021/01/01 00:49:37;;;;;;;148.48;67.68;;;5.20;99.90;;;;;;5039113;28;20022;-74
2021/01/01 00:52:04;;;;;;;140.65;68.57;;;5.20;99.90;;;;;;5043170;28;20722;-74
2021/01/01 00:54:31;;;;;;;154.63;68.75;;;5.20;99.90;;;;;;5044460;28;20026;-74
2021/01/01 00:56:57;;;;;;;150.70;70.35;;;5.10;99.90;;;;;;5044428;28;20057;-74
2021/01/01 00:59:22;;;;;;;142.85;65.72;;;5.10;99.90;;;;;;5045549;28;20024;-74
2021/01/01 01:01:48;;;;;;;139.27;67.18;;;5.00;99.90;;;;;;5046217;28;20037;-74
2021/01/01 01:04:14;;;;;;;155.55;69.30;;;5.00;99.90;;;;;;5048688;28;20139;-74
2021/01/01 01:06:39;;;;;;;160.10;73.25;;;5.00;99.90;;;;;;5048453;28;20090;-74
2021/01/01 01:09:05;;;;;;;152.98;68.90;;;5.00;99.90;;;;;;5047591;28;20039;-74
2021/01/01 01:11:31;;;;;;;157.95;73.88;;;5.10;99.90;;;;;;5048527;28;20043;-74
2021/01/01 01:13:58;;;;;;;156.05;75.07;;;5.10;99.90;;;;;;5050237;28;20432;-74
2021/01/01 01:16:29;;;;;;;171.77;80.18;;;5.20;99.90;;;;;;5049121;28;20021;-73
2021/01/01 01:18:56;;;;;;;151.88;71.47;;;5.10;99.90;;;;;;5047738;28;20032;-74
2021/01/01 01:21:22;;;;;;;152.27;72.05;;;5.10;99.90;;;;;;5047080;28;20032;-74
2021/01/01 01:23:51;;;;;;;170.75;78.72;;;5.10;99.90;;;;;;5048686;28;20028;-75
2021/01/01 01:26:17;;;;;;;167.25;73.60;;;5.10;99.90;;;;;;5043511;28;20082;-74
2021/01/01 01:28:42;;;;;;;172.13;82.68;;;5.00;99.90;;;;;;5043244;28;20095;-74
2021/01/01 01:31:08;;;;;;;164.63;76.97;;;5.10;99.90;;;;;;5043644;28;20622;-74
2021/01/01 01:33:34;;;;;;;175.23;72.70;;;5.10;99.90;;;;;;5040634;28;20109;-74
2021/01/01 01:36:00;;;;;;;150.65;71.10;;;5.10;99.90;;;;;;5038318;28;20052;-74
2021/01/01 01:38:27;;;;;;;150.07;72.18;;;5.10;99.90;;;;;;5039178;28;20056;-74
2021/01/01 01:40:53;;;;;;;152.77;72.60;;;5.10;99.90;;;;;;5042600;28;20041;-74
2021/01/01 01:43:19;;;;;;;140.23;65.05;;;5.10;99.90;;;;;;5045703;28;20028;-74
2021/01/01 01:45:45;;;;;;;145.48;69.57;;;5.10;99.90;;;;;;5042745;28;20107;-74
2021/01/01 01:48:51;;;;;;;154.48;70.10;;;5.10;99.90;;;;;;5044098;28;20112;-73
2021/01/01 01:51:17;;;;;;;148.10;68.28;;;5.10;99.90;;;;;;5041523;28;20056;-75
2021/01/01 01:53:47;;;;;;;151.77;73.40;;;5.10;99.90;;;;;;5041894;28;20028;-75
2021/01/01 01:56:14;;;;;;;166.80;75.50;;;5.10;99.90;;;;;;5032261;28;20060;-75
2021/01/01 01:58:41;;;;;;;162.60;74.75;;;5.20;99.90;;;;;;5047446;28;20451;-75
2021/01/01 02:01:07;;;;;;;174.95;81.03;;;5.10;99.90;;;;;;5039212;28;20013;-74
2021/01/01 02:03:33;;;;;;;161.35;78.30;;;5.20;99.90;;;;;;5039771;28;20406;-75
2021/01/01 02:06:00;;;;;;;170.93;81.68;;;5.20;99.90;;;;;;5048978;28;20025;-75
2021/01/01 02:08:26;;;;;;;191.77;90.15;;;5.20;99.90;;;;;;5044950;28;20036;-75
2021/01/01 02:10:57;;;;;;;193.20;92.78;;;5.20;99.90;;;;;;5044815;28;20048;-75
2021/01/01 02:13:24;;;;;;;190.50;93.47;;;5.10;99.90;;;;;;5043321;28;20083;-75
2021/01/01 02:15:50;;;;;;;194.65;95.32;;;5.20;99.90;;;;;;5048159;28;20029;-74
2021/01/01 02:18:43;;;;;;;189.10;95.10;;;5.10;99.90;;;;;;5044123;28;20017;-74
2021/01/01 02:21:12;;;;;;;191.55;91.93;;;5.10;99.90;;;;;;5035341;28;20037;-74
2021/01/01 02:23:38;;;;;;;196.55;99.75;;;5.10;99.90;;;;;;5046456;28;20029;-74
2021/01/01 02:26:05;;;;;;;213.10;104.13;;;5.20;99.90;;;;;;5053347;28;20027;-74
2021/01/01 02:28:30;;;;;;;196.52;97.80;;;5.20;99.90;;;;;;5044780;28;20033;-74
2021/01/01 02:30:56;;;;;;;196.43;95.05;;;5.10;99.90;;;;;;5041890;28;20115;-74
2021/01/01 02:33:22;;;;;;;188.43;89.00;;;5.10;99.90;;;;;;5044578;28;20108;-74
2021/01/01 02:35:48;;;;;;;181.48;85.72;;;5.10;99.90;;;;;;5058970;28;20474;-74
2021/01/01 02:38:13;;;;;;;178.00;86.20;;;5.10;99.90;;;;;;5044412;28;20021;-74
2021/01/01 02:40:39;;;;;;;185.32;85.60;;;5.10;99.90;;;;;;5049980;28;20036;-74
2021/01/01 02:43:05;;;;;;;169.00;80.57;;;5.10;99.90;;;;;;5045197;28;20029;-74
2021/01/01 02:45:31;;;;;;;188.10;89.68;;;5.10;99.90;;;;;;5049280;28;20135;-75
2021/01/01 02:47:56;;;;;;;255.50;101.43;;;5.10;99.90;;;;;;5046410;28;20029;-74
2021/01/01 02:50:22;;;;;;;205.15;94.25;;;5.00;99.90;;;;;;5048045;28;20045;-74
2021/01/01 02:52:48;;;;;;;227.02;96.03;;;5.10;99.90;;;;;;5051397;28;20025;-74
2021/01/01 02:55:13;;;;;;;238.48;101.57;;;5.00;99.90;;;;;;5052749;28;20028;-74
2021/01/01 02:57:39;;;;;;;223.77;94.35;;;5.00;99.90;;;;;;5052882;28;20041;-75
2021/01/01 03:00:06;;;;;;;225.05;95.20;;;5.00;99.90;;;;;;5042669;28;20032;-74
2021/01/01 03:02:32;;;;;;;195.43;86.53;;;5.00;99.90;;;;;;5048423;28;20040;-74
2021/01/01 03:04:58;;;;;;;194.07;86.47;;;5.00;99.90;;;;;;5044887;28;20032;-75
2021/01/01 03:07:23;;;;;;;193.55;85.13;;;4.90;99.90;;;;;;5040031;28;20017;-74
2021/01/01 03:09:49;;;;;;;188.95;86.18;;;5.00;99.90;;;;;;5045711;28;20389;-74
2021/01/01 03:12:15;;;;;;;186.98;83.25;;;4.90;99.90;;;;;;5046535;28;20060;-74
2021/01/01 03:14:40;;;;;;;181.60;81.20;;;5.00;99.90;;;;;;5041686;28;20061;-74
2021/01/01 03:17:06;;;;;;;162.85;72.22;;;5.00;99.90;;;;;;5040236;28;20037;-75
2021/01/01 03:19:32;;;;;;;179.57;74.22;;;5.00;99.90;;;;;;5051555;28;20029;-74
2021/01/01 03:21:57;;;;;;;180.98;77.78;;;4.90;99.90;;;;;;5046744;28;20035;-74
2021/01/01 03:24:23;;;;;;;170.52;76.45;;;5.00;99.90;;;;;;5045485;28;20044;-75
2021/01/01 03:26:48;;;;;;;170.02;77.53;;;4.90;99.90;;;;;;5043420;28;20037;-74
2021/01/01 03:29:14;;;;;;;163.75;73.80;;;5.00;99.90;;;;;;5043101;28;20104;-75
2021/01/01 03:31:39;;;;;;;162.05;75.30;;;4.90;99.90;;;;;;5044349;28;20603;-74
2021/01/01 03:34:05;;;;;;;147.90;66.35;;;5.00;99.90;;;;;;5045223;28;20021;-74
2021/01/01 03:36:31;;;;;;;157.82;72.63;;;5.00;99.90;;;;;;5042501;28;20038;-75
2021/01/01 03:38:56;;;;;;;150.68;67.00;;;5.00;99.90;;;;;;5052118;28;20101;-74
2021/01/01 03:41:22;;;;;;;143.80;67.70;;;5.00;99.90;;;;;;5050281;28;20481;-74
2021/01/01 03:43:48;;;;;;;153.35;68.38;;;5.00;99.90;;;;;;5044462;28;20033;-74
2021/01/01 03:46:14;;;;;;;152.82;67.75;;;5.00;99.90;;;;;;5040402;28;20029;-74
2021/01/01 03:48:39;;;;;;;176.93;72.18;;;5.00;99.90;;;;;;5045974;28;20037;-74
2021/01/01 03:51:05;;;;;;;138.77;62.22;;;5.00;99.90;;;;;;5041770;28;20037;-74
2021/01/01 03:53:31;;;;;;;152.85;64.35;;;4.90;99.90;;;;;;5044179;28;20020;-74
2021/01/01 03:55:56;;;;;;;130.85;63.35;;;5.00;99.90;;;;;;5040521;28;20602;-75
2021/01/01 03:58:22;;;;;;;149.40;64.03;;;5.00;99.90;;;;;;5045808;28;20087;-74
2021/01/01 04:00:48;;;;;;;144.65;63.42;;;5.00;99.90;;;;;;5039533;28;20025;-75
2021/01/01 04:03:13;;;;;;;140.48;61.38;;;4.90;99.90;;;;;;5049531;28;20040;-75
2021/01/01 04:05:39;;;;;;;144.20;62.22;;;4.90;99.90;;;;;;5044705;28;20034;-75
2021/01/01 04:08:05;;;;;;;144.15;60.58;;;4.90;99.90;;;;;;5048757;28;20393;-75
2021/01/01 04:10:30;;;;;;;134.35;59.40;;;4.90;99.90;;;;;;5048884;28;20112;-75
2021/01/01 04:12:56;;;;;;;130.45;59.03;;;4.90;99.90;;;;;;5051202;28;20456;-74
2021/01/01 04:15:22;;;;;;;136.25;60.40;;;4.90;99.90;;;;;;5043152;28;20032;-74
2021/01/01 04:17:47;;;;;;;138.85;60.47;;;4.90;99.90;;;;;;5041887;28;20056;-75
2021/01/01 04:20:13;;;;;;;141.35;59.33;;;4.90;99.90;;;;;;5043649;28;20096;-75
2021/01/01 04:22:39;;;;;;;146.85;62.80;;;4.90;99.90;;;;;;5035465;28;20041;-75
2021/01/01 04:25:05;;;;;;;132.18;59.10;;;4.90;99.90;;;;;;5042457;28;20347;-73
2021/01/01 04:27:31;;;;;;;155.55;62.05;;;4.80;99.90;;;;;;5044616;28;20025;-74
2021/01/01 04:29:56;;;;;;;123.00;55.53;;;4.80;99.90;;;;;;5041091;28;20474;-75
2021/01/01 04:32:22;;;;;;;136.43;59.65;;;4.80;99.90;;;;;;5047177;28;20042;-75
2021/01/01 04:34:48;;;;;;;135.25;55.33;;;4.80;99.90;;;;;;5038933;28;20057;-75
2021/01/01 04:37:13;;;;;;;132.60;57.58;;;4.80;99.90;;;;;;5041399;28;20058;-75
2021/01/01 04:39:39;;;;;;;136.55;56.60;;;4.80;99.90;;;;;;5042639;28;20029;-74
2021/01/01 04:42:05;;;;;;;143.30;59.33;;;4.80;99.90;;;;;;5039422;28;20029;-74
2021/01/01 04:44:31;;;;;;;122.75;53.97;;;4.80;99.90;;;;;;5041178;28;20064;-75
2021/01/01 04:47:00;;;;;;;129.43;54.38;;;4.70;99.90;;;;;;5041276;28;20052;-75
2021/01/01 04:49:28;;;;;;;131.05;56.72;;;4.70;99.90;;;;;;5041406;28;20080;-75
2021/01/01 04:51:56;;;;;;;126.65;54.75;;;4.70;99.90;;;;;;5042162;28;20034;-75
2021/01/01 04:54:27;;;;;;;124.88;52.95;;;4.70;99.90;;;;;;5043983;28;20040;-75
2021/01/01 04:56:52;;;;;;;138.82;53.88;;;4.60;99.90;;;;;;5043583;28;20500;-75
2021/01/01 04:59:18;;;;;;;127.90;54.85;;;4.60;99.90;;;;;;5045095;28;20025;-74
2021/01/01 05:01:45;;;;;;;142.35;53.35;;;4.60;99.90;;;;;;5042907;28;20416;-76
2021/01/01 05:04:11;;;;;;;128.45;50.95;;;4.60;99.90;;;;;;5039289;28;20459;-76
2021/01/01 05:06:39;;;;;;;121.07;52.13;;;4.60;99.90;;;;;;5038491;28;20068;-76
2021/01/01 05:09:04;;;;;;;110.25;48.22;;;4.60;99.90;;;;;;5046430;28;20028;-76
2021/01/01 05:11:30;;;;;;;125.22;51.30;;;4.60;99.90;;;;;;5050293;28;20029;-76
2021/01/01 05:14:01;;;;;;;134.90;53.38;;;4.60;99.90;;;;;;5042401;28;20052;-76
2021/01/01 05:16:27;;;;;;;126.88;50.28;;;4.70;99.90;;;;;;5058384;28;20485;-76
2021/01/01 05:18:53;;;;;;;125.18;50.58;;;4.60;99.90;;;;;;5041692;28;20029;-76
2021/01/01 05:21:27;;;;;;;127.22;51.88;;;4.60;99.90;;;;;;5039970;28;20040;-76
2021/01/01 05:23:56;;;;;;;124.63;51.13;;;4.60;99.90;;;;;;5035395;28;20025;-76
2021/01/01 05:26:29;;;;;;;118.82;49.88;;;4.60;99.90;;;;;;5040431;28;20498;-76
2021/01/01 05:28:55;;;;;;;108.85;46.72;;;4.50;99.90;;;;;;5046163;28;20056;-76
2021/01/01 05:31:26;;;;;;;112.03;48.20;;;4.60;99.90;;;;;;5042347;28;20034;-76
2021/01/01 05:33:53;;;;;;;114.10;47.45;;;4.60;99.90;;;;;;5045920;28;20045;-76
2021/01/01 05:36:27;;;;;;;132.30;52.30;;;4.50;99.90;;;;;;5042266;28;20044;-76
2021/01/01 05:38:53;;;;;;;119.20;49.30;;;4.50;99.90;;;;;;5040578;28;20108;-76
2021/01/01 05:41:31;;;;;;;111.97;46.63;;;4.50;99.90;;;;;;5039150;28;20132;-76
2021/01/01 05:44:07;;;;;;;124.53;49.25;;;4.50;99.90;;;;;;5042295;28;20028;-75
2021/01/01 05:46:33;;;;;;;120.63;50.58;;;4.60;99.90;;;;;;5041282;28;20025;-75
2021/01/01 05:49:03;;;;;;;123.35;49.45;;;4.60;99.90;;;;;;5042632;28;20036;-75
2021/01/01 05:51:28;;;;;;;123.95;51.03;;;4.60;99.90;;;;;;5047105;28;20033;-76
2021/01/01 05:54:10;;;;;;;127.32;51.42;;;4.60;99.90;;;;;;5050469;28;21244;-76
2021/01/01 05:56:38;;;;;;;126.38;49.75;;;4.50;99.90;;;;;;5043381;28;20108;-75
2021/01/01 05:59:06;;;;;;;113.22;46.67;;;4.60;99.90;;;;;;5046092;28;20500;-76
2021/01/01 06:01:35;;;;;;;128.05;49.25;;;4.60;99.90;;;;;;5044487;28;20029;-75
2021/01/01 06:04:02;;;;;;;114.65;47.35;;;4.60;99.90;;;;;;5042728;28;20041;-74
2021/01/01 06:06:32;;;;;;;115.55;48.90;;;4.60;99.90;;;;;;5043739;28;20029;-75
2021/01/01 06:09:04;;;;;;;127.72;46.35;;;4.60;99.90;;;;;;5046743;28;20025;-76
2021/01/01 06:11:34;;;;;;;117.30;45.67;;;4.70;99.90;;;;;;5044498;28;20108;-76
2021/01/01 06:14:05;;;;;;;129.85;47.25;;;4.70;99.90;;;;;;5050233;28;20032;-75
2021/01/01 06:16:48;;;;;;;182.48;53.60;;;4.60;99.90;;;;;;5039684;28;20474;-75
2021/01/01 06:19:18;;;;;;;124.22;50.35;;;4.60;99.90;;;;;;5047771;28;20119;-74
2021/01/01 06:21:44;;;;;;;112.47;45.00;;;4.60;99.90;;;;;;5050738;28;20100;-74
2021/01/01 06:24:27;;;;;;;128.35;47.05;;;4.60;99.90;;;;;;5045891;28;20128;-74
2021/01/01 06:26:53;;;;;;;157.75;52.40;;;4.60;99.90;;;;;;5052074;28;20032;-75
2021/01/01 06:29:19;;;;;;;123.22;48.22;;;4.70;99.90;;;;;;5039531;28;20028;-75
2021/01/01 06:31:47;;;;;;;117.35;47.83;;;4.60;99.90;;;;;;5042898;28;20535;-75
2021/01/01 06:34:29;;;;;;;126.13;48.10;;;4.70;99.90;;;;;;5042929;28;20021;-74
2021/01/01 06:36:55;;;;;;;123.97;48.05;;;4.60;99.90;;;;;;5045231;28;20119;-75
2021/01/01 06:39:45;;;;;;;118.05;46.83;;;4.70;99.90;;;;;;5051577;28;20024;-74
2021/01/01 06:42:11;;;;;;;109.30;46.42;;;4.70;99.90;;;;;;5048148;28;20029;-74
2021/01/01 06:44:40;;;;;;;115.88;46.88;;;4.70;99.90;;;;;;5050876;28;20528;-75
2021/01/01 06:47:10;;;;;;;124.40;47.83;;;4.70;99.90;;;;;;5043424;28;20025;-75
2021/01/01 06:49:39;;;;;;;121.55;45.97;;;4.70;99.90;;;;;;5046087;28;20075;-74
2021/01/01 06:52:05;;;;;;;107.95;44.67;;;4.70;99.90;;;;;;5046501;28;20052;-74
2021/01/01 06:54:31;;;;;;;121.10;45.08;;;4.70;99.90;;;;;;5047198;28;20041;-74
2021/01/01 06:57:04;;;;;;;122.25;45.90;;;4.70;99.90;;;;;;5049761;28;20029;-74
2021/01/01 06:59:33;;;;;;;114.35;48.67;;;4.70;99.90;;;;;;5050535;28;20083;-74
2021/01/01 07:02:18;;;;;;;128.25;50.88;;;4.70;99.90;;;;;;5048028;28;20056;-74
2021/01/01 07:04:50;;;;;;;123.85;49.13;;;4.70;99.90;;;;;;5042515;28;20030;-75
2021/01/01 07:07:42;;;;;;;156.85;57.10;;;4.70;99.90;;;;;;5043563;28;20449;-75
2021/01/01 07:10:13;;;;;;;121.57;48.63;;;4.70;99.90;;;;;;5041567;28;20542;-74
2021/01/01 07:12:39;;;;;;;117.57;46.55;;;4.60;99.90;;;;;;5043462;28;20056;-74
2021/01/01 07:15:31;;;;;;;126.55;50.85;;;4.60;99.90;;;;;;5043106;28;20017;-74
2021/01/01 07:17:57;;;;;;;117.20;49.65;;;4.60;99.90;;;;;;5037547;28;20614;-74
2021/01/01 07:20:23;;;;;;;115.30;47.22;;;4.70;99.90;;;;;;5044583;28;20477;-74
2021/01/01 07:22:56;;;;;;;125.10;47.92;;;4.70;99.90;;;;;;5039375;28;20398;-75
2021/01/01 07:25:38;;;;;;;122.88;48.13;;;4.60;99.90;;;;;;5050711;28;20724;-74
2021/01/01 07:28:06;;;;;;;121.68;48.40;;;4.60;99.90;;;;;;5044300;28;20024;-75
2021/01/01 07:30:34;;;;;;;142.18;49.80;;;4.60;99.90;;;;;;5048890;28;20032;-74
2021/01/01 07:33:00;;;;;;;121.47;46.92;;;4.60;99.90;;;;;;5038023;28;20051;-75
2021/01/01 07:35:27;;;;;;;153.38;51.97;;;4.60;99.90;;;;;;5043442;28;20540;-75
2021/01/01 07:37:54;;;;;;;142.30;50.90;;;4.60;99.90;;;;;;5042800;28;20477;-75
2021/01/01 07:40:20;;;;;;;120.83;48.20;;;4.60;99.90;;;;;;5027486;28;594832;-74
2021/01/01 07:42:47;;;;;;;101.18;44.13;;;4.60;99.90;;;;;;5043555;28;20100;-74
2021/01/01 07:45:13;;;;;;;133.05;49.25;;;4.60;99.90;;;;;;5043350;28;20446;-74
2021/01/01 07:47:42;;;;;;;118.50;50.05;;;4.50;99.90;;;;;;5040564;28;20059;-74
2021/01/01 07:50:12;;;;;;;112.13;48.92;;;4.60;99.90;;;;;;5042156;28;20039;-74
2021/01/01 07:52:38;;;;;;;120.15;49.42;;;4.60;99.90;;;;;;5041364;28;20474;-74
2021/01/01 07:55:04;;;;;;;123.40;48.38;;;4.50;99.90;;;;;;5039344;28;20076;-73
2021/01/01 07:57:30;;;;;;;123.78;49.28;;;4.60;99.90;;;;;;5040241;28;20037;-74
2021/01/01 07:59:58;;;;;;;129.70;49.15;;;4.50;99.90;;;;;;5053791;28;20544;-74
2021/01/01 08:02:24;;;;;;;111.18;48.55;;;4.50;99.90;;;;;;5047614;28;20064;-74
2021/01/01 08:04:51;;;;;;;129.10;51.10;;;4.50;99.90;;;;;;5046335;28;20035;-74
2021/01/01 08:07:23;;;;;;;124.53;47.75;;;4.50;99.90;;;;;;5043323;28;20024;-74
2021/01/01 08:09:49;;;;;;;121.68;51.35;;;4.40;99.90;;;;;;5042298;28;20525;-74
2021/01/01 08:12:15;;;;;;;117.50;48.38;;;4.40;99.90;;;;;;5049211;28;20080;-74
2021/01/01 08:14:51;;;;;;;114.55;46.90;;;4.50;99.90;;;;;;5040075;28;20052;-75
2021/01/01 08:17:21;;;;;;;132.02;51.13;;;4.40;99.90;;;;;;5042010;28;20025;-75
2021/01/01 08:19:47;;;;;;;113.10;49.50;;;4.40;99.90;;;;;;5043359;28;20096;-75
2021/01/01 08:22:19;;;;;;;149.55;53.97;;;4.40;99.90;;;;;;5043695;28;20032;-74
2021/01/01 08:24:50;;;;;;;129.90;53.53;;;4.40;99.90;;;;;;5047326;28;20071;-75
2021/01/01 08:27:16;;;;;;;107.45;45.97;;;4.30;99.90;;;;;;5045470;28;20094;-74
2021/01/01 08:29:43;;;;;;;135.32;50.80;;;4.30;99.90;;;;;;5049639;28;20024;-75
2021/01/01 08:32:12;;;;;;;111.35;48.40;;;4.30;99.90;;;;;;5046209;28;20409;-75
2021/01/01 08:34:39;;;;;;;116.90;49.33;;;4.30;99.90;;;;;;5040853;28;20048;-74
2021/01/01 08:37:24;;;;;;;109.88;47.58;;;4.30;99.90;;;;;;5046553;28;20112;-74
2021/01/01 08:40:10;;;;;;;108.22;47.42;;;4.30;99.90;;;;;;5050131;28;20029;-74
2021/01/01 08:42:38;;;;;;;117.13;48.35;;;4.30;99.90;;;;;;5043679;28;20045;-74
2021/01/01 08:45:05;;;;;;;109.25;46.25;;;4.30;99.90;;;;;;5039238;28;20028;-75
2021/01/01 08:47:51;;;;;;;111.88;47.55;;;4.30;99.90;;;;;;5048409;28;20052;-75
2021/01/01 08:50:18;;;;;;;124.10;51.90;;;4.30;99.90;;;;;;5043610;28;20496;-74
2021/01/01 08:52:45;;;;;;;112.10;46.45;;;4.30;99.90;;;;;;5043324;28;20115;-74
2021/01/01 08:55:12;;;;;;;103.57;44.45;;;4.30;99.90;;;;;;5050261;28;20091;-74
2021/01/01 08:57:38;;;;;;;115.32;47.33;;;4.30;99.90;;;;;;5044423;28;20422;-74
2021/01/01 09:00:05;;;;;;;108.68;45.70;;;4.30;99.90;;;;;;5048435;28;20075;-74
2021/01/01 09:02:33;;;;;;;106.32;45.58;;;4.30;99.90;;;;;;5048283;28;20383;-74
2021/01/01 09:05:00;;;;;;;95.22;45.83;;;4.30;99.90;;;;;;5043392;28;20033;-74
2021/01/01 09:07:25;;;;;;;108.88;48.00;;;4.30;99.90;;;;;;5041663;28;20045;-74
2021/01/01 09:09:51;;;;;;;123.75;49.63;;;4.40;99.90;;;;;;5049017;28;20052;-75
2021/01/01 09:12:22;;;;;;;103.25;47.13;;;4.40;99.90;;;;;;5042745;28;20640;-74
2021/01/01 09:14:52;;;;;;;110.72;47.72;;;4.40;99.90;;;;;;5050248;28;20067;-74
2021/01/01 09:17:24;;;;;;;147.80;55.95;;;4.40;99.90;;;;;;5048109;28;20422;-74
2021/01/01 09:20:05;;;;;;;109.57;47.75;;;4.50;99.90;;;;;;5047449;28;20025;-73
2021/01/01 09:22:33;;;;;;;100.13;45.78;;;4.50;99.90;;;;;;5047169;28;20079;-74
2021/01/01 09:25:18;;;;;;;104.93;46.90;;;4.60;99.90;;;;;;5037107;28;20017;-74
2021/01/01 09:27:46;;;;;;;99.32;46.25;;;4.50;99.90;;;;;;5043063;28;20030;-74
2021/01/01 09:30:13;;;;;;;102.28;46.40;;;4.50;99.90;;;;;;5044223;28;20025;-74
2021/01/01 09:32:45;;;;;;;97.43;44.60;;;4.50;99.90;;;;;;5040826;28;20033;-74
2021/01/01 09:35:12;;;;;;;118.20;52.33;;;4.50;99.90;;;;;;5043296;28;20033;-74
2021/01/01 09:37:55;;;;;;;100.18;49.00;;;4.50;99.90;;;;;;5041490;28;20044;-74
2021/01/01 09:40:36;;;;;;;103.63;44.40;;;4.60;99.90;;;;;;5043500;28;20442;-73
2021/01/01 09:43:07;;;;;;;118.75;50.78;;;4.60;99.90;;;;;;5037681;28;20018;-74
2021/01/01 09:45:33;;;;;;;110.38;47.75;;;4.60;99.90;;;;;;5037442;28;20025;-74
2021/01/01 09:47:59;;;;;;;117.90;49.10;;;4.60;99.90;;;;;;5038417;28;20454;-74
2021/01/01 09:50:24;;;;;;;99.40;43.50;;;4.70;99.90;;;;;;5043400;28;20037;-74
2021/01/01 09:52:50;;;;;;;94.05;41.95;;;4.70;99.90;;;;;;5046009;28;20384;-74
2021/01/01 09:55:16;;;;;;;88.30;40.53;;;4.70;99.90;;;;;;5045389;28;20427;-74
2021/01/01 09:57:42;;;;;;;87.55;41.40;;;4.80;99.90;;;;;;5048452;28;20056;-73
2021/01/01 10:00:10;;;;;;;96.00;44.33;;;4.80;99.90;;;;;;5044629;28;20107;-74
2021/01/01 10:02:37;;;;;;;97.18;43.50;;;4.80;99.90;;;;;;5044609;28;20017;-75
2021/01/01 10:05:04;;;;;;;91.40;42.67;;;4.90;99.90;;;;;;5046999;28;20055;-74
2021/01/01 10:07:29;;;;;;;96.60;44.05;;;4.90;99.90;;;;;;5040373;28;20037;-74
2021/01/01 10:09:56;;;;;;;98.15;42.67;;;4.90;99.90;;;;;;5045023;28;20025;-74
2021/01/01 10:12:22;;;;;;;101.82;44.33;;;5.00;99.90;;;;;;5046057;28;20385;-74
2021/01/01 10:14:50;;;;;;;89.68;40.00;;;5.10;99.90;;;;;;5040614;28;20028;-74
2021/01/01 10:17:16;;;;;;;88.80;39.85;;;5.00;99.90;;;;;;5041145;28;20026;-74
2021/01/01 10:19:42;;;;;;;88.35;39.95;;;5.10;99.90;;;;;;5047547;28;20028;-74
2021/01/01 10:22:08;;;;;;;85.60;41.67;;;5.10;99.90;;;;;;5041463;28;20029;-74
2021/01/01 10:24:34;;;;;;;79.97;38.55;;;5.20;99.90;;;;;;5049361;28;20090;-74
2021/01/01 10:27:00;;;;;;;85.88;40.83;;;5.20;99.90;;;;;;5043104;28;20421;-74
2021/01/01 10:29:26;;;;;;;80.45;37.67;;;5.20;99.90;;;;;;5047432;28;20509;-74
2021/01/01 10:31:52;;;;;;;91.93;39.65;;;5.20;99.90;;;;;;5032415;28;20040;-76
2021/01/01 10:34:18;;;;;;;74.80;36.08;;;5.20;99.90;;;;;;5053672;28;20432;-75
2021/01/01 10:36:44;;;;;;;74.53;36.92;;;5.20;99.90;;;;;;5044370;28;20477;-74
2021/01/01 10:39:10;;;;;;;66.82;33.75;;;5.10;99.90;;;;;;5047449;28;20035;-75
2021/01/01 10:41:37;;;;;;;70.68;35.63;;;5.10;99.90;;;;;;5045679;28;20041;-74
2021/01/01 10:44:05;;;;;;;72.25;36.17;;;5.20;99.90;;;;;;5042577;28;20437;-74
2021/01/01 10:46:31;;;;;;;77.10;38.75;;;5.10;99.90;;;;;;5047653;28;20032;-76
2021/01/01 10:48:59;;;;;;;71.03;35.67;;;5.20;99.90;;;;;;5047984;28;20099;-74
2021/01/01 10:51:26;;;;;;;71.85;35.33;;;5.20;99.90;;;;;;5048487;28;20116;-74
2021/01/01 10:53:52;;;;;;;65.28;34.25;;;5.20;99.90;;;;;;5047699;28;20100;-74
2021/01/01 10:56:36;;;;;;;64.32;33.55;;;5.20;99.90;;;;;;5051307;28;20128;-74
2021/01/01 10:59:01;;;;;;;64.80;32.72;;;5.30;99.90;;;;;;5047431;28;20028;-74
2021/01/01 11:01:27;;;;;;;67.00;36.15;;;5.30;99.90;;;;;;5044660;28;20029;-75
2021/01/01 11:03:53;;;;;;;69.55;35.90;;;5.30;99.90;;;;;;5049450;28;20032;-75
2021/01/01 11:06:19;;;;;;;62.35;29.27;;;5.40;99.90;;;;;;5047314;28;20120;-74
2021/01/01 11:08:46;;;;;;;58.58;32.50;;;5.30;99.90;;;;;;5044670;28;20052;-74
2021/01/01 11:11:13;;;;;;;61.83;31.83;;;5.30;99.90;;;;;;5045017;28;20508;-74
2021/01/01 11:13:54;;;;;;;69.30;36.08;;;5.30;99.90;;;;;;5049509;28;20138;-75
2021/01/01 12:24:47;;;;;;;52.22;31.48;;;6.00;99.90;;;;;;5045289;28;20489;-73
2021/01/01 12:27:18;;;;;;;48.58;29.15;;;6.00;99.90;;;;;;5047116;28;20035;-74
2021/01/01 12:29:46;;;;;;;51.67;29.30;;;6.10;99.90;;;;;;5051809;28;20536;-75
2021/01/01 12:32:14;;;;;;;53.38;30.88;;;6.10;99.90;;;;;;5040249;28;20037;-74
2021/01/01 12:34:39;;;;;;;54.13;31.00;;;6.30;99.90;;;;;;5047044;28;20021;-74
2021/01/01 12:37:05;;;;;;;49.65;31.05;;;6.30;99.90;;;;;;5048639;28;20090;-74
2021/01/01 12:39:31;;;;;;;50.17;31.33;;;6.30;99.90;;;;;;5044368;28;20032;-74
2021/01/01 12:41:57;;;;;;;52.08;31.63;;;6.30;99.90;;;;;;5038395;28;20033;-75
2021/01/01 12:44:22;;;;;;;48.85;30.17;;;6.40;99.90;;;;;;5046453;28;20474;-74
2021/01/01 12:46:51;;;;;;;55.88;33.47;;;6.30;99.90;;;;;;5047475;28;20021;-74
2021/01/01 12:49:17;;;;;;;60.47;36.47;;;6.40;99.90;;;;;;5043351;28;20018;-74
2021/01/01 12:51:42;;;;;;;55.25;33.95;;;6.40;99.90;;;;;;5048126;28;20275;-74
2021/01/01 12:54:08;;;;;;;60.67;34.42;;;6.50;99.90;;;;;;5047232;28;20036;-74
2021/01/01 12:56:36;;;;;;;57.25;33.53;;;6.40;99.90;;;;;;5045637;28;20017;-73
2021/01/01 12:59:01;;;;;;;60.78;35.08;;;6.50;99.90;;;;;;5045665;28;20021;-74
2021/01/01 13:01:29;;;;;;;55.20;35.15;;;6.50;99.90;;;;;;5048570;28;20431;-74
2021/01/01 13:03:55;;;;;;;56.00;34.97;;;6.50;99.90;;;;;;5040919;28;20040;-74
2021/01/01 13:06:21;;;;;;;57.83;35.05;;;6.50;99.90;;;;;;5050291;28;20025;-74
2021/01/01 13:08:46;;;;;;;62.15;35.08;;;6.60;99.90;;;;;;5043990;28;20025;-74
2021/01/01 13:11:12;;;;;;;66.88;36.60;;;6.50;99.90;;;;;;5048000;28;20037;-74
2021/01/01 13:13:38;;;;;;;59.92;34.67;;;6.60;99.90;;;;;;5049167;28;20029;-74
2021/01/01 13:16:05;;;;;;;54.25;33.83;;;6.60;99.90;;;;;;5044300;28;20489;-77
2021/01/01 13:18:31;;;;;;;54.28;31.75;;;6.60;99.90;;;;;;5044377;28;20055;-74
2021/01/01 13:20:57;;;;;;;56.90;33.90;;;6.60;99.90;;;;;;5044710;28;20036;-78
2021/01/01 13:23:23;;;;;;;58.72;33.53;;;6.70;99.90;;;;;;5041957;28;20028;-75
2021/01/01 13:25:49;;;;;;;52.58;33.22;;;6.70;99.90;;;;;;5041495;28;20574;-78
2021/01/01 13:28:16;;;;;;;56.33;34.45;;;6.70;99.90;;;;;;5041824;28;20036;-78
2021/01/01 13:30:41;;;;;;;57.70;34.78;;;6.70;99.90;;;;;;5043816;28;20033;-73
2021/01/01 13:33:07;;;;;;;59.20;34.28;;;6.70;99.90;;;;;;5045792;28;20029;-80
2021/01/01 13:35:33;;;;;;;56.72;35.47;;;6.60;99.90;;;;;;5043148;28;20056;-75
2021/01/01 13:37:58;;;;;;;37.78;24.45;;;6.60;99.90;;;;;;5042323;28;20067;-74
2021/01/01 13:40:25;;;;;;;20.40;13.02;;;6.60;99.90;;;;;;5044072;28;20504;-74